sensor_id;sensor_type;location;lat;lon;timestamp;P1;durP1;ratioP1;P2;durP2;ratioP2
71091;SDS011;58751;50.708;7.134;2024-02-16T00:00:38;4.03;;;2.10;;
71091;SDS011;58751;50.708;7.134;2024-02-16T00:03:04;1.90;;;1.77;;
71091;SDS011;58751;50.708;7.134;2024-02-16T00:05:29;8.03;;;2.17;;
71091;SDS011;58751;50.708;7.134;2024-02-16T00:07:55;1.80;;;1.60;;
71091;SDS011;58751;50.708;7.134;2024-02-16T00:10:20;2.03;;;1.63;;
71091;SDS011;58751;50.708;7.134;2024-02-16T00:12:47;5.23;;;2.37;;
71091;SDS011;58751;50.708;7.134;2024-02-16T00:15:12;3.08;;;2.00;;
71091;SDS011;58751;50.708;7.134;2024-02-16T00:17:38;2.00;;;1.67;;
71091;SDS011;58751;50.708;7.134;2024-02-16T00:20:03;2.20;;;2.00;;
71091;SDS011;58751;50.708;7.134;2024-02-16T00:22:29;2.00;;;1.80;;
71091;SDS011;58751;50.708;7.134;2024-02-16T00:24:55;2.97;;;1.67;;
71091;SDS011;58751;50.708;7.134;2024-02-16T00:27:20;2.20;;;1.40;;
71091;SDS011;58751;50.708;7.134;2024-02-16T00:29:47;3.90;;;2.17;;
71091;SDS011;58751;50.708;7.134;2024-02-16T00:32:12;3.92;;;2.08;;
71091;SDS011;58751;50.708;7.134;2024-02-16T00:34:38;3.25;;;1.70;;
71091;SDS011;58751;50.708;7.134;2024-02-16T00:37:04;6.03;;;1.63;;
71091;SDS011;58751;50.708;7.134;2024-02-16T00:39:29;5.57;;;1.90;;
71091;SDS011;58751;50.708;7.134;2024-02-16T00:41:55;1.60;;;1.50;;
71091;SDS011;58751;50.708;7.134;2024-02-16T00:44:20;6.50;;;1.70;;
71091;SDS011;58751;50.708;7.134;2024-02-16T00:46:47;1.83;;;1.30;;
71091;SDS011;58751;50.708;7.134;2024-02-16T00:49:12;2.42;;;2.00;;
71091;SDS011;58751;50.708;7.134;2024-02-16T00:51:38;2.07;;;1.40;;
71091;SDS011;58751;50.708;7.134;2024-02-16T00:54:03;2.60;;;2.03;;
71091;SDS011;58751;50.708;7.134;2024-02-16T00:56:29;2.43;;;1.90;;
71091;SDS011;58751;50.708;7.134;2024-02-16T00:58:54;2.63;;;1.57;;
71091;SDS011;58751;50.708;7.134;2024-02-16T01:01:20;1.80;;;1.70;;
71091;SDS011;58751;50.708;7.134;2024-02-16T01:03:47;9.93;;;2.27;;
71091;SDS011;58751;50.708;7.134;2024-02-16T01:06:12;2.55;;;1.75;;
71091;SDS011;58751;50.708;7.134;2024-02-16T01:08:37;1.60;;;1.50;;
71091;SDS011;58751;50.708;7.134;2024-02-16T01:11:03;2.70;;;1.90;;
71091;SDS011;58751;50.708;7.134;2024-02-16T01:13:28;3.03;;;1.40;;
71091;SDS011;58751;50.708;7.134;2024-02-16T01:15:54;3.80;;;1.90;;
71091;SDS011;58751;50.708;7.134;2024-02-16T01:18:19;2.97;;;2.00;;
71091;SDS011;58751;50.708;7.134;2024-02-16T01:20:46;2.47;;;1.50;;
71091;SDS011;58751;50.708;7.134;2024-02-16T01:23:11;2.60;;;2.03;;
71091;SDS011;58751;50.708;7.134;2024-02-16T01:25:37;2.60;;;2.10;;
71091;SDS011;58751;50.708;7.134;2024-02-16T01:28:02;2.50;;;2.13;;
71091;SDS011;58751;50.708;7.134;2024-02-16T01:30:28;2.57;;;1.90;;
71091;SDS011;58751;50.708;7.134;2024-02-16T01:32:53;2.93;;;2.27;;
71091;SDS011;58751;50.708;7.134;2024-02-16T01:35:18;4.27;;;2.33;;
71091;SDS011;58751;50.708;7.134;2024-02-16T01:37:45;3.17;;;2.10;;
71091;SDS011;58751;50.708;7.134;2024-02-16T01:40:11;3.55;;;2.17;;
71091;SDS011;58751;50.708;7.134;2024-02-16T01:42:36;1.97;;;1.80;;
71091;SDS011;58751;50.708;7.134;2024-02-16T01:45:02;3.90;;;2.60;;
71091;SDS011;58751;50.708;7.134;2024-02-16T01:47:27;2.10;;;1.80;;
71091;SDS011;58751;50.708;7.134;2024-02-16T01:49:52;2.03;;;1.80;;
71091;SDS011;58751;50.708;7.134;2024-02-16T01:52:18;2.77;;;2.07;;
71091;SDS011;58751;50.708;7.134;2024-02-16T01:54:45;2.40;;;2.20;;
71091;SDS011;58751;50.708;7.134;2024-02-16T01:57:10;2.50;;;2.30;;
71091;SDS011;58751;50.708;7.134;2024-02-16T01:59:35;8.20;;;2.30;;
71091;SDS011;58751;50.708;7.134;2024-02-16T02:02:01;8.23;;;1.87;;
71091;SDS011;58751;50.708;7.134;2024-02-16T02:04:26;3.50;;;1.97;;
71091;SDS011;58751;50.708;7.134;2024-02-16T02:06:52;2.30;;;2.10;;
71091;SDS011;58751;50.708;7.134;2024-02-16T02:09:17;4.73;;;2.67;;
71091;SDS011;58751;50.708;7.134;2024-02-16T02:11:44;3.17;;;2.30;;
71091;SDS011;58751;50.708;7.134;2024-02-16T02:14:09;3.28;;;2.35;;
71091;SDS011;58751;50.708;7.134;2024-02-16T02:16:35;3.77;;;2.03;;
71091;SDS011;58751;50.708;7.134;2024-02-16T02:19:00;3.07;;;2.27;;
71091;SDS011;58751;50.708;7.134;2024-02-16T02:21:25;3.60;;;2.20;;
71091;SDS011;58751;50.708;7.134;2024-02-16T02:23:52;1.97;;;1.83;;
71091;SDS011;58751;50.708;7.134;2024-02-16T02:26:17;3.00;;;2.00;;
71091;SDS011;58751;50.708;7.134;2024-02-16T02:28:43;4.00;;;2.07;;
71091;SDS011;58751;50.708;7.134;2024-02-16T02:31:08;2.60;;;2.27;;
71091;SDS011;58751;50.708;7.134;2024-02-16T02:33:34;4.00;;;2.07;;
71091;SDS011;58751;50.708;7.134;2024-02-16T02:35:59;2.00;;;1.80;;
71091;SDS011;58751;50.708;7.134;2024-02-16T02:38:24;3.10;;;2.40;;
71091;SDS011;58751;50.708;7.134;2024-02-16T02:40:51;2.57;;;2.23;;
71091;SDS011;58751;50.708;7.134;2024-02-16T02:43:16;3.22;;;2.35;;
71091;SDS011;58751;50.708;7.134;2024-02-16T02:45:42;2.30;;;2.10;;
71091;SDS011;58751;50.708;7.134;2024-02-16T02:48:07;2.73;;;1.80;;
71091;SDS011;58751;50.708;7.134;2024-02-16T02:50:32;4.47;;;2.83;;
71091;SDS011;58751;50.708;7.134;2024-02-16T02:52:58;2.50;;;2.20;;
71091;SDS011;58751;50.708;7.134;2024-02-16T02:55:23;2.87;;;2.10;;
71091;SDS011;58751;50.708;7.134;2024-02-16T02:57:50;5.20;;;2.43;;
71091;SDS011;58751;50.708;7.134;2024-02-16T03:00:15;2.60;;;1.95;;
71091;SDS011;58751;50.708;7.134;2024-02-16T03:02:41;2.50;;;2.30;;
71091;SDS011;58751;50.708;7.134;2024-02-16T03:05:07;2.80;;;2.23;;
71091;SDS011;58751;50.708;7.134;2024-02-16T03:07:33;2.43;;;2.23;;
71091;SDS011;58751;50.708;7.134;2024-02-16T03:09:58;2.40;;;2.20;;
71091;SDS011;58751;50.708;7.134;2024-02-16T03:12:23;3.13;;;2.10;;
71091;SDS011;58751;50.708;7.134;2024-02-16T03:14:50;4.07;;;2.67;;
71091;SDS011;58751;50.708;7.134;2024-02-16T03:17:16;3.25;;;1.90;;
71091;SDS011;58751;50.708;7.134;2024-02-16T03:19:41;4.77;;;2.80;;
71091;SDS011;58751;50.708;7.134;2024-02-16T03:22:07;3.10;;;2.27;;
71091;SDS011;58751;50.708;7.134;2024-02-16T03:24:32;4.47;;;3.10;;
71091;SDS011;58751;50.708;7.134;2024-02-16T03:26:58;3.43;;;1.80;;
71091;SDS011;58751;50.708;7.134;2024-02-16T03:29:23;4.80;;;2.20;;
71091;SDS011;58751;50.708;7.134;2024-02-16T03:31:50;4.70;;;2.10;;
71091;SDS011;58751;50.708;7.134;2024-02-16T03:34:16;2.97;;;2.25;;
71091;SDS011;58751;50.708;7.134;2024-02-16T03:36:41;2.73;;;2.50;;
71091;SDS011;58751;50.708;7.134;2024-02-16T03:39:07;3.57;;;2.33;;
71091;SDS011;58751;50.708;7.134;2024-02-16T03:41:32;6.10;;;2.83;;
71091;SDS011;58751;50.708;7.134;2024-02-16T03:43:57;6.13;;;2.77;;
71091;SDS011;58751;50.708;7.134;2024-02-16T03:46:23;4.47;;;3.20;;
71091;SDS011;58751;50.708;7.134;2024-02-16T03:48:49;2.60;;;2.33;;
71091;SDS011;58751;50.708;7.134;2024-02-16T03:51:15;3.17;;;2.85;;
71091;SDS011;58751;50.708;7.134;2024-02-16T03:53:40;2.63;;;2.43;;
71091;SDS011;58751;50.708;7.134;2024-02-16T03:56:06;6.00;;;3.00;;
71091;SDS011;58751;50.708;7.134;2024-02-16T03:58:31;3.00;;;2.80;;
71091;SDS011;58751;50.708;7.134;2024-02-16T04:00:56;4.10;;;3.00;;
71091;SDS011;58751;50.708;7.134;2024-02-16T04:03:22;2.93;;;2.63;;
71091;SDS011;58751;50.708;7.134;2024-02-16T04:05:49;3.77;;;2.43;;
71091;SDS011;58751;50.708;7.134;2024-02-16T04:08:14;2.78;;;2.45;;
71091;SDS011;58751;50.708;7.134;2024-02-16T04:10:39;3.10;;;2.60;;
71091;SDS011;58751;50.708;7.134;2024-02-16T04:13:05;5.97;;;2.50;;
71091;SDS011;58751;50.708;7.134;2024-02-16T04:15:30;4.10;;;2.47;;
71091;SDS011;58751;50.708;7.134;2024-02-16T04:17:55;4.57;;;2.57;;
71091;SDS011;58751;50.708;7.134;2024-02-16T04:20:22;4.23;;;2.57;;
71091;SDS011;58751;50.708;7.134;2024-02-16T04:22:49;2.78;;;2.20;;
71091;SDS011;58751;50.708;7.134;2024-02-16T04:25:14;3.75;;;2.88;;
71091;SDS011;58751;50.708;7.134;2024-02-16T04:27:40;3.37;;;2.47;;
71091;SDS011;58751;50.708;7.134;2024-02-16T04:30:06;2.83;;;2.53;;
71091;SDS011;58751;50.708;7.134;2024-02-16T04:32:32;6.78;;;3.40;;
71091;SDS011;58751;50.708;7.134;2024-02-16T04:34:57;3.17;;;2.53;;
71091;SDS011;58751;50.708;7.134;2024-02-16T04:37:23;2.80;;;2.50;;
71091;SDS011;58751;50.708;7.134;2024-02-16T04:39:49;4.77;;;2.80;;
71091;SDS011;58751;50.708;7.134;2024-02-16T04:42:15;2.70;;;2.47;;
71091;SDS011;58751;50.708;7.134;2024-02-16T04:44:41;3.63;;;2.90;;
71091;SDS011;58751;50.708;7.134;2024-02-16T04:47:06;5.23;;;2.50;;
71091;SDS011;58751;50.708;7.134;2024-02-16T04:49:32;4.07;;;2.77;;
71091;SDS011;58751;50.708;7.134;2024-02-16T04:51:57;3.20;;;2.90;;
71091;SDS011;58751;50.708;7.134;2024-02-16T04:54:23;6.33;;;2.70;;
71091;SDS011;58751;50.708;7.134;2024-02-16T04:56:50;4.03;;;2.70;;
71091;SDS011;58751;50.708;7.134;2024-02-16T04:59:15;2.55;;;2.13;;
71091;SDS011;58751;50.708;7.134;2024-02-16T05:01:42;3.33;;;2.50;;
71091;SDS011;58751;50.708;7.134;2024-02-16T05:04:08;2.83;;;2.60;;
71091;SDS011;58751;50.708;7.134;2024-02-16T05:06:33;3.43;;;1.80;;
71091;SDS011;58751;50.708;7.134;2024-02-16T05:09:03;2.63;;;2.42;;
71091;SDS011;58751;50.708;7.134;2024-02-16T05:11:31;2.20;;;2.00;;
71091;SDS011;58751;50.708;7.134;2024-02-16T05:13:58;2.67;;;2.10;;
71091;SDS011;58751;50.708;7.134;2024-02-16T05:16:23;3.55;;;2.47;;
71091;SDS011;58751;50.708;7.134;2024-02-16T05:18:49;2.60;;;2.37;;
71091;SDS011;58751;50.708;7.134;2024-02-16T05:21:14;2.83;;;2.47;;
71091;SDS011;58751;50.708;7.134;2024-02-16T05:23:39;2.60;;;2.40;;
71091;SDS011;58751;50.708;7.134;2024-02-16T05:26:05;5.27;;;2.60;;
71091;SDS011;58751;50.708;7.134;2024-02-16T05:28:30;4.23;;;2.20;;
71091;SDS011;58751;50.708;7.134;2024-02-16T05:30:57;5.40;;;2.60;;
71091;SDS011;58751;50.708;7.134;2024-02-16T05:33:23;2.53;;;2.30;;
71091;SDS011;58751;50.708;7.134;2024-02-16T05:35:49;2.13;;;2.00;;
71091;SDS011;58751;50.708;7.134;2024-02-16T05:38:14;3.70;;;2.43;;
71091;SDS011;58751;50.708;7.134;2024-02-16T05:40:40;2.77;;;2.57;;
71091;SDS011;58751;50.708;7.134;2024-02-16T05:43:06;2.92;;;2.53;;
71091;SDS011;58751;50.708;7.134;2024-02-16T05:45:31;4.97;;;2.47;;
71091;SDS011;58751;50.708;7.134;2024-02-16T05:47:58;3.53;;;2.40;;
71091;SDS011;58751;50.708;7.134;2024-02-16T05:50:23;2.72;;;2.53;;
71091;SDS011;58751;50.708;7.134;2024-02-16T05:52:49;5.13;;;2.77;;
71091;SDS011;58751;50.708;7.134;2024-02-16T05:55:14;3.50;;;2.40;;
71091;SDS011;58751;50.708;7.134;2024-02-16T05:57:39;2.93;;;2.73;;
71091;SDS011;58751;50.708;7.134;2024-02-16T06:00:06;5.97;;;2.63;;
71091;SDS011;58751;50.708;7.134;2024-02-16T06:02:32;3.83;;;2.85;;
71091;SDS011;58751;50.708;7.134;2024-02-16T06:04:59;3.13;;;2.57;;
71091;SDS011;58751;50.708;7.134;2024-02-16T06:07:25;3.15;;;2.40;;
71091;SDS011;58751;50.708;7.134;2024-02-16T06:09:50;3.90;;;2.60;;
71091;SDS011;58751;50.708;7.134;2024-02-16T06:12:15;3.40;;;3.10;;
71091;SDS011;58751;50.708;7.134;2024-02-16T06:14:41;4.73;;;2.43;;
71091;SDS011;58751;50.708;7.134;2024-02-16T06:17:06;7.77;;;3.40;;
71091;SDS011;58751;50.708;7.134;2024-02-16T06:19:32;6.90;;;3.17;;
71091;SDS011;58751;50.708;7.134;2024-02-16T06:21:58;4.60;;;2.73;;
71091;SDS011;58751;50.708;7.134;2024-02-16T06:24:24;2.53;;;2.22;;
71091;SDS011;58751;50.708;7.134;2024-02-16T06:26:49;3.30;;;3.00;;
71091;SDS011;58751;50.708;7.134;2024-02-16T06:29:15;3.80;;;2.60;;
71091;SDS011;58751;50.708;7.134;2024-02-16T06:31:40;2.03;;;1.87;;
71091;SDS011;58751;50.708;7.134;2024-02-16T06:34:06;3.03;;;2.73;;
71091;SDS011;58751;50.708;7.134;2024-02-16T06:36:31;3.60;;;2.70;;
71091;SDS011;58751;50.708;7.134;2024-02-16T06:38:58;4.10;;;2.57;;
71091;SDS011;58751;50.708;7.134;2024-02-16T06:41:23;3.55;;;2.35;;
71091;SDS011;58751;50.708;7.134;2024-02-16T06:43:49;2.50;;;2.30;;
71091;SDS011;58751;50.708;7.134;2024-02-16T06:46:14;3.43;;;2.40;;
71091;SDS011;58751;50.708;7.134;2024-02-16T06:48:39;3.57;;;2.50;;
71091;SDS011;58751;50.708;7.134;2024-02-16T06:51:05;2.63;;;2.30;;
71091;SDS011;58751;50.708;7.134;2024-02-16T06:53:32;3.63;;;2.47;;
71091;SDS011;58751;50.708;7.134;2024-02-16T06:55:59;5.35;;;3.67;;
71091;SDS011;58751;50.708;7.134;2024-02-16T06:58:24;5.32;;;3.00;;
71091;SDS011;58751;50.708;7.134;2024-02-16T07:00:50;3.03;;;2.73;;
71091;SDS011;58751;50.708;7.134;2024-02-16T07:03:15;2.50;;;2.30;;
71091;SDS011;58751;50.708;7.134;2024-02-16T07:05:41;3.80;;;2.47;;
71091;SDS011;58751;50.708;7.134;2024-02-16T07:08:06;3.90;;;2.87;;
71091;SDS011;58751;50.708;7.134;2024-02-16T07:10:32;3.30;;;1.90;;
71091;SDS011;58751;50.708;7.134;2024-02-16T07:12:58;4.20;;;2.93;;
71091;SDS011;58751;50.708;7.134;2024-02-16T07:15:24;3.05;;;2.78;;
71091;SDS011;58751;50.708;7.134;2024-02-16T07:17:49;5.10;;;2.80;;
71091;SDS011;58751;50.708;7.134;2024-02-16T07:20:15;5.33;;;2.77;;
71091;SDS011;58751;50.708;7.134;2024-02-16T07:22:40;4.13;;;2.93;;
71091;SDS011;58751;50.708;7.134;2024-02-16T07:25:06;3.03;;;2.53;;
71091;SDS011;58751;50.708;7.134;2024-02-16T07:27:32;6.78;;;2.88;;
71091;SDS011;58751;50.708;7.134;2024-02-16T07:29:58;5.70;;;2.50;;
71091;SDS011;58751;50.708;7.134;2024-02-16T07:32:24;6.10;;;3.00;;
71091;SDS011;58751;50.708;7.134;2024-02-16T07:34:49;4.50;;;2.97;;
71091;SDS011;58751;50.708;7.134;2024-02-16T07:37:15;4.07;;;2.87;;
71091;SDS011;58751;50.708;7.134;2024-02-16T07:39:40;2.20;;;2.00;;
71091;SDS011;58751;50.708;7.134;2024-02-16T07:42:06;2.50;;;2.30;;
71091;SDS011;58751;50.708;7.134;2024-02-16T07:44:31;3.27;;;2.30;;
71091;SDS011;58751;50.708;7.134;2024-02-16T07:46:58;3.33;;;2.70;;
71091;SDS011;58751;50.708;7.134;2024-02-16T07:49:23;5.72;;;2.53;;
71091;SDS011;58751;50.708;7.134;2024-02-16T07:51:49;2.80;;;2.60;;
71091;SDS011;58751;50.708;7.134;2024-02-16T07:54:14;3.53;;;2.70;;
71091;SDS011;58751;50.708;7.134;2024-02-16T07:56:40;2.93;;;2.63;;
71091;SDS011;58751;50.708;7.134;2024-02-16T07:59:05;4.30;;;3.07;;
71091;SDS011;58751;50.708;7.134;2024-02-16T08:01:30;2.93;;;2.17;;
71091;SDS011;58751;50.708;7.134;2024-02-16T08:03:57;6.17;;;3.10;;
71091;SDS011;58751;50.708;7.134;2024-02-16T08:06:24;4.10;;;2.70;;
71091;SDS011;58751;50.708;7.134;2024-02-16T08:08:50;3.33;;;3.03;;
71091;SDS011;58751;50.708;7.134;2024-02-16T08:11:15;3.73;;;2.70;;
71091;SDS011;58751;50.708;7.134;2024-02-16T08:13:41;4.30;;;2.70;;
71091;SDS011;58751;50.708;7.134;2024-02-16T08:16:06;3.23;;;2.93;;
71091;SDS011;58751;50.708;7.134;2024-02-16T08:18:32;4.63;;;2.73;;
71091;SDS011;58751;50.708;7.134;2024-02-16T08:20:58;2.57;;;2.37;;
71091;SDS011;58751;50.708;7.134;2024-02-16T08:23:24;4.63;;;2.60;;
71091;SDS011;58751;50.708;7.134;2024-02-16T08:25:49;5.00;;;2.67;;
71091;SDS011;58751;50.708;7.134;2024-02-16T08:28:15;2.80;;;2.60;;
71091;SDS011;58751;50.708;7.134;2024-02-16T08:30:40;3.87;;;2.43;;
71091;SDS011;58751;50.708;7.134;2024-02-16T08:33:05;3.87;;;3.47;;
71091;SDS011;58751;50.708;7.134;2024-02-16T08:35:31;2.83;;;2.60;;
71091;SDS011;58751;50.708;7.134;2024-02-16T08:37:57;3.50;;;3.10;;
71091;SDS011;58751;50.708;7.134;2024-02-16T08:40:23;3.38;;;2.70;;
71091;SDS011;58751;50.708;7.134;2024-02-16T08:42:48;4.00;;;3.27;;
71091;SDS011;58751;50.708;7.134;2024-02-16T08:45:14;3.70;;;3.40;;
71091;SDS011;58751;50.708;7.134;2024-02-16T08:47:39;4.10;;;2.97;;
71091;SDS011;58751;50.708;7.134;2024-02-16T08:50:05;7.00;;;3.27;;
71091;SDS011;58751;50.708;7.134;2024-02-16T08:52:31;3.37;;;3.07;;
71091;SDS011;58751;50.708;7.134;2024-02-16T08:54:57;3.20;;;2.90;;
71091;SDS011;58751;50.708;7.134;2024-02-16T08:57:23;2.22;;;2.10;;
71091;SDS011;58751;50.708;7.134;2024-02-16T08:59:48;3.00;;;2.63;;
71091;SDS011;58751;50.708;7.134;2024-02-16T09:02:14;3.37;;;3.07;;
71091;SDS011;58751;50.708;7.134;2024-02-16T09:04:39;3.57;;;3.27;;
71091;SDS011;58751;50.708;7.134;2024-02-16T09:07:04;3.40;;;2.53;;
71091;SDS011;58751;50.708;7.134;2024-02-16T09:09:30;4.30;;;3.13;;
71091;SDS011;58751;50.708;7.134;2024-02-16T09:11:57;6.77;;;2.90;;
71091;SDS011;58751;50.708;7.134;2024-02-16T09:14:22;4.40;;;3.13;;
71091;SDS011;58751;50.708;7.134;2024-02-16T09:16:48;5.13;;;3.37;;
71091;SDS011;58751;50.708;7.134;2024-02-16T09:19:14;4.32;;;3.20;;
71091;SDS011;58751;50.708;7.134;2024-02-16T09:21:39;4.80;;;3.20;;
71091;SDS011;58751;50.708;7.134;2024-02-16T09:24:05;4.53;;;3.10;;
71091;SDS011;58751;50.708;7.134;2024-02-16T09:26:30;4.20;;;3.33;;
71091;SDS011;58751;50.708;7.134;2024-02-16T09:28:57;4.17;;;2.80;;
71091;SDS011;58751;50.708;7.134;2024-02-16T09:31:24;4.97;;;3.90;;
71091;SDS011;58751;50.708;7.134;2024-02-16T09:33:50;4.97;;;3.40;;
71091;SDS011;58751;50.708;7.134;2024-02-16T09:36:18;6.07;;;3.40;;
71091;SDS011;58751;50.708;7.134;2024-02-16T09:38:44;8.60;;;3.55;;
71091;SDS011;58751;50.708;7.134;2024-02-16T09:41:09;6.73;;;4.03;;
71091;SDS011;58751;50.708;7.134;2024-02-16T09:43:35;4.00;;;3.17;;
71091;SDS011;58751;50.708;7.134;2024-02-16T09:46:01;4.40;;;3.43;;
71091;SDS011;58751;50.708;7.134;2024-02-16T09:48:27;5.47;;;3.92;;
71091;SDS011;58751;50.708;7.134;2024-02-16T09:50:53;4.63;;;3.33;;
71091;SDS011;58751;50.708;7.134;2024-02-16T09:53:19;4.30;;;3.07;;
71091;SDS011;58751;50.708;7.134;2024-02-16T09:55:45;4.65;;;3.13;;
71091;SDS011;58751;50.708;7.134;2024-02-16T09:58:10;6.80;;;4.10;;
71091;SDS011;58751;50.708;7.134;2024-02-16T10:00:36;5.80;;;3.60;;
71091;SDS011;58751;50.708;7.134;2024-02-16T10:03:03;4.50;;;3.50;;
71091;SDS011;58751;50.708;7.134;2024-02-16T10:05:29;3.90;;;3.13;;
71091;SDS011;58751;50.708;7.134;2024-02-16T10:07:54;3.50;;;3.20;;
71091;SDS011;58751;50.708;7.134;2024-02-16T10:10:20;3.67;;;3.37;;
71091;SDS011;58751;50.708;7.134;2024-02-16T10:12:45;4.53;;;3.27;;
71091;SDS011;58751;50.708;7.134;2024-02-16T10:15:11;3.87;;;3.20;;
71091;SDS011;58751;50.708;7.134;2024-02-16T10:17:36;4.93;;;3.30;;
71091;SDS011;58751;50.708;7.134;2024-02-16T10:20:04;5.73;;;3.13;;
71091;SDS011;58751;50.708;7.134;2024-02-16T10:22:30;3.47;;;3.10;;
71091;SDS011;58751;50.708;7.134;2024-02-16T10:25:06;5.60;;;3.97;;
71091;SDS011;58751;50.708;7.134;2024-02-16T10:27:32;8.60;;;3.60;;
71091;SDS011;58751;50.708;7.134;2024-02-16T10:29:57;6.90;;;3.80;;
71091;SDS011;58751;50.708;7.134;2024-02-16T10:32:23;6.40;;;3.73;;
71091;SDS011;58751;50.708;7.134;2024-02-16T10:34:49;4.07;;;3.57;;
71091;SDS011;58751;50.708;7.134;2024-02-16T10:37:16;4.05;;;3.70;;
71091;SDS011;58751;50.708;7.134;2024-02-16T10:39:42;6.85;;;4.53;;
71091;SDS011;58751;50.708;7.134;2024-02-16T10:42:07;6.73;;;4.13;;
71091;SDS011;58751;50.708;7.134;2024-02-16T10:44:33;4.45;;;3.92;;
71091;SDS011;58751;50.708;7.134;2024-02-16T10:47:00;5.07;;;3.97;;
71091;SDS011;58751;50.708;7.134;2024-02-16T10:49:26;4.50;;;4.10;;
71091;SDS011;58751;50.708;7.134;2024-02-16T10:51:51;7.27;;;3.80;;
71091;SDS011;58751;50.708;7.134;2024-02-16T10:54:21;3.92;;;3.35;;
71091;SDS011;58751;50.708;7.134;2024-02-16T10:56:47;6.72;;;4.15;;
71091;SDS011;58751;50.708;7.134;2024-02-16T10:59:13;7.97;;;3.90;;
71091;SDS011;58751;50.708;7.134;2024-02-16T11:01:38;8.53;;;4.40;;
71091;SDS011;58751;50.708;7.134;2024-02-16T11:04:05;5.75;;;4.15;;
71091;SDS011;58751;50.708;7.134;2024-02-16T11:06:31;6.28;;;3.42;;
71091;SDS011;58751;50.708;7.134;2024-02-16T11:09:00;5.43;;;3.80;;
71091;SDS011;58751;50.708;7.134;2024-02-16T11:11:28;7.03;;;3.65;;
71091;SDS011;58751;50.708;7.134;2024-02-16T11:13:54;7.82;;;3.92;;
71091;SDS011;58751;50.708;7.134;2024-02-16T11:16:19;5.45;;;4.00;;
71091;SDS011;58751;50.708;7.134;2024-02-16T11:18:45;4.90;;;3.67;;
71091;SDS011;58751;50.708;7.134;2024-02-16T11:21:11;5.67;;;3.93;;
71091;SDS011;58751;50.708;7.134;2024-02-16T11:23:37;5.10;;;4.00;;
71091;SDS011;58751;50.708;7.134;2024-02-16T11:26:05;4.80;;;3.20;;
71091;SDS011;58751;50.708;7.134;2024-02-16T11:28:32;5.05;;;3.40;;
71091;SDS011;58751;50.708;7.134;2024-02-16T11:30:59;4.30;;;3.38;;
71091;SDS011;58751;50.708;7.134;2024-02-16T11:33:24;5.40;;;3.67;;
71091;SDS011;58751;50.708;7.134;2024-02-16T11:35:53;4.20;;;3.60;;
71091;SDS011;58751;50.708;7.134;2024-02-16T11:38:19;7.13;;;3.40;;
71091;SDS011;58751;50.708;7.134;2024-02-16T11:40:52;5.43;;;4.23;;
71091;SDS011;58751;50.708;7.134;2024-02-16T11:43:19;3.65;;;3.15;;
71091;SDS011;58751;50.708;7.134;2024-02-16T11:45:46;4.40;;;4.00;;
71091;SDS011;58751;50.708;7.134;2024-02-16T11:48:12;6.78;;;4.22;;
71091;SDS011;58751;50.708;7.134;2024-02-16T11:50:37;3.90;;;3.50;;
71091;SDS011;58751;50.708;7.134;2024-02-16T11:53:03;4.63;;;4.00;;
71091;SDS011;58751;50.708;7.134;2024-02-16T11:55:28;3.63;;;3.33;;
71091;SDS011;58751;50.708;7.134;2024-02-16T11:57:54;7.40;;;3.83;;
71091;SDS011;58751;50.708;7.134;2024-02-16T12:00:19;7.80;;;4.33;;
71091;SDS011;58751;50.708;7.134;2024-02-16T12:02:46;4.03;;;3.63;;
71091;SDS011;58751;50.708;7.134;2024-02-16T12:05:13;4.57;;;3.80;;
71091;SDS011;58751;50.708;7.134;2024-02-16T12:07:38;6.27;;;3.90;;
71091;SDS011;58751;50.708;7.134;2024-02-16T12:10:05;8.97;;;4.20;;
71091;SDS011;58751;50.708;7.134;2024-02-16T12:12:31;4.13;;;3.60;;
71091;SDS011;58751;50.708;7.134;2024-02-16T12:14:57;9.60;;;4.10;;
71091;SDS011;58751;50.708;7.134;2024-02-16T12:17:23;9.23;;;4.47;;
71091;SDS011;58751;50.708;7.134;2024-02-16T12:19:50;4.50;;;4.10;;
71091;SDS011;58751;50.708;7.134;2024-02-16T12:22:16;7.10;;;4.03;;
71091;SDS011;58751;50.708;7.134;2024-02-16T12:24:42;6.67;;;3.63;;
71091;SDS011;58751;50.708;7.134;2024-02-16T12:27:07;6.63;;;4.20;;
71091;SDS011;58751;50.708;7.134;2024-02-16T12:29:33;8.00;;;4.53;;
71091;SDS011;58751;50.708;7.134;2024-02-16T12:31:58;7.77;;;3.97;;
71091;SDS011;58751;50.708;7.134;2024-02-16T12:34:24;4.33;;;3.13;;
71091;SDS011;58751;50.708;7.134;2024-02-16T12:36:50;5.77;;;3.37;;
71091;SDS011;58751;50.708;7.134;2024-02-16T12:39:16;7.00;;;3.30;;
71091;SDS011;58751;50.708;7.134;2024-02-16T12:41:41;3.40;;;2.70;;
71091;SDS011;58751;50.708;7.134;2024-02-16T12:44:07;3.87;;;3.37;;
71091;SDS011;58751;50.708;7.134;2024-02-16T12:46:32;6.03;;;3.40;;
71091;SDS011;58751;50.708;7.134;2024-02-16T12:48:57;3.90;;;3.07;;
71091;SDS011;58751;50.708;7.134;2024-02-16T12:51:23;3.67;;;2.83;;
71091;SDS011;58751;50.708;7.134;2024-02-16T12:53:50;3.83;;;3.10;;
71091;SDS011;58751;50.708;7.134;2024-02-16T12:56:15;3.83;;;3.27;;
71091;SDS011;58751;50.708;7.134;2024-02-16T12:58:41;10.43;;;3.93;;
71091;SDS011;58751;50.708;7.134;2024-02-16T13:01:06;4.00;;;3.20;;
71091;SDS011;58751;50.708;7.134;2024-02-16T13:03:33;6.77;;;3.70;;
71091;SDS011;58751;50.708;7.134;2024-02-16T13:05:58;6.17;;;3.40;;
71091;SDS011;58751;50.708;7.134;2024-02-16T13:08:24;8.70;;;3.53;;
71091;SDS011;58751;50.708;7.134;2024-02-16T13:10:51;3.30;;;3.00;;
71091;SDS011;58751;50.708;7.134;2024-02-16T13:13:16;6.73;;;3.63;;
71091;SDS011;58751;50.708;7.134;2024-02-16T13:15:41;5.73;;;2.97;;
71091;SDS011;58751;50.708;7.134;2024-02-16T13:18:07;5.07;;;3.93;;
71091;SDS011;58751;50.708;7.134;2024-02-16T13:20:32;7.33;;;4.30;;
71091;SDS011;58751;50.708;7.134;2024-02-16T13:22:58;3.77;;;3.47;;
71091;SDS011;58751;50.708;7.134;2024-02-16T13:25:23;6.43;;;4.23;;
71091;SDS011;58751;50.708;7.134;2024-02-16T13:27:50;10.77;;;4.63;;
71091;SDS011;58751;50.708;7.134;2024-02-16T13:30:15;5.60;;;4.10;;
71091;SDS011;58751;50.708;7.134;2024-02-16T13:32:41;9.60;;;4.80;;
71091;SDS011;58751;50.708;7.134;2024-02-16T13:35:06;6.73;;;4.47;;
71091;SDS011;58751;50.708;7.134;2024-02-16T13:37:32;5.07;;;4.57;;
71091;SDS011;58751;50.708;7.134;2024-02-16T13:39:57;8.27;;;4.27;;
71091;SDS011;58751;50.708;7.134;2024-02-16T13:42:23;5.97;;;5.03;;
71091;SDS011;58751;50.708;7.134;2024-02-16T13:44:49;5.13;;;4.53;;
71091;SDS011;58751;50.708;7.134;2024-02-16T13:47:15;6.32;;;5.38;;
71091;SDS011;58751;50.708;7.134;2024-02-16T13:49:40;12.70;;;6.20;;
71091;SDS011;58751;50.708;7.134;2024-02-16T13:52:06;9.87;;;5.53;;
71091;SDS011;58751;50.708;7.134;2024-02-16T13:54:31;9.20;;;5.43;;
71091;SDS011;58751;50.708;7.134;2024-02-16T13:56:57;6.90;;;5.07;;
71091;SDS011;58751;50.708;7.134;2024-02-16T13:59:22;11.90;;;6.20;;
71091;SDS011;58751;50.708;7.134;2024-02-16T14:01:49;14.03;;;6.40;;
71091;SDS011;58751;50.708;7.134;2024-02-16T14:04:14;9.18;;;5.93;;
71091;SDS011;58751;50.708;7.134;2024-02-16T14:06:40;7.17;;;5.13;;
71091;SDS011;58751;50.708;7.134;2024-02-16T14:09:05;7.30;;;5.70;;
71091;SDS011;58751;50.708;7.134;2024-02-16T14:11:30;6.37;;;5.50;;
71091;SDS011;58751;50.708;7.134;2024-02-16T14:13:56;7.33;;;5.80;;
71091;SDS011;58751;50.708;7.134;2024-02-16T14:16:21;8.27;;;6.67;;
71091;SDS011;58751;50.708;7.134;2024-02-16T14:18:48;7.00;;;4.60;;
71091;SDS011;58751;50.708;7.134;2024-02-16T14:21:13;11.73;;;5.68;;
71091;SDS011;58751;50.708;7.134;2024-02-16T14:23:39;8.37;;;5.17;;
71091;SDS011;58751;50.708;7.134;2024-02-16T14:26:04;10.37;;;5.20;;
71091;SDS011;58751;50.708;7.134;2024-02-16T14:28:29;8.67;;;5.63;;
71091;SDS011;58751;50.708;7.134;2024-02-16T14:30:55;6.13;;;4.67;;
71091;SDS011;58751;50.708;7.134;2024-02-16T14:33:20;7.90;;;6.67;;
71091;SDS011;58751;50.708;7.134;2024-02-16T14:35:47;10.40;;;6.37;;
71091;SDS011;58751;50.708;7.134;2024-02-16T14:38:13;10.20;;;6.32;;